createdAt,value
2023-03-07T00:03:44.506Z,9.57
2023-03-07T00:18:46.871Z,7.93
2023-03-07T00:33:49.403Z,7.40
2023-03-07T00:48:52.230Z,6.23
2023-03-07T01:03:55.958Z,5.87
2023-03-07T01:19:02.126Z,5.23
2023-03-07T01:34:05.079Z,5.77
2023-03-07T01:49:29.525Z,6.50
2023-03-07T02:05:01.219Z,6.90
2023-03-07T02:20:28.323Z,7.03
2023-03-07T02:35:30.897Z,6.83
2023-03-07T02:50:36.850Z,6.97
2023-03-07T03:05:40.656Z,7.03
2023-03-07T03:20:43.234Z,6.23
2023-03-07T03:35:46.724Z,8.03
2023-03-07T03:50:49.589Z,8.20
2023-03-07T04:05:52.077Z,9.07
2023-03-07T04:20:54.564Z,9.80
2023-03-07T04:35:57.117Z,8.17
2023-03-07T04:50:59.830Z,8.70
2023-03-07T05:06:08.323Z,8.90
2023-03-07T05:21:10.814Z,9.87
2023-03-07T05:36:15.176Z,10.00
2023-03-07T05:51:17.839Z,9.70
2023-03-07T06:06:20.353Z,9.33
2023-03-07T06:21:23.476Z,10.43
2023-03-07T06:36:26.301Z,9.53
2023-03-07T06:51:32.540Z,9.97
2023-03-07T07:06:36.103Z,9.63
2023-03-07T07:21:38.599Z,9.63
2023-03-07T07:36:41.231Z,9.53
2023-03-07T07:51:43.723Z,8.50
2023-03-07T08:06:46.390Z,7.93
2023-03-07T08:21:48.720Z,7.90
2023-03-07T08:36:52.912Z,8.03
2023-03-07T08:51:55.325Z,7.77
2023-03-07T09:07:00.060Z,8.57
2023-03-07T09:22:03.741Z,8.33
2023-03-07T09:37:06.227Z,8.33
2023-03-07T09:52:15.130Z,8.60
2023-03-07T10:07:20.707Z,8.20
2023-03-07T10:22:52.571Z,8.33
2023-03-07T10:38:05.145Z,9.17
2023-03-07T10:53:26.495Z,8.83
2023-03-07T11:08:35.397Z,9.80
2023-03-07T11:23:37.870Z,8.73
2023-03-07T11:39:00.138Z,9.10
2023-03-07T11:54:21.383Z,9.67
2023-03-07T12:09:33.248Z,9.77
2023-03-07T12:24:40.315Z,10.97
2023-03-07T12:39:59.722Z,10.67
2023-03-07T12:55:27.549Z,10.60
2023-03-07T13:10:30.867Z,7.90
2023-03-07T13:25:56.334Z,4.60
2023-03-07T13:41:05.698Z,5.17
2023-03-07T13:56:17.303Z,5.20
2023-03-07T14:11:40.760Z,5.70
2023-03-07T14:26:46.773Z,7.73
2023-03-07T14:41:55.569Z,5.13
2023-03-07T14:56:59.844Z,4.60
2023-03-07T15:12:12.716Z,5.23
2023-03-07T15:27:22.428Z,7.00
2023-03-07T15:42:25.107Z,11.07
2023-03-07T15:57:47.880Z,8.53
2023-03-07T16:12:50.679Z,22.40
2023-03-07T16:27:58.344Z,15.87
2023-03-07T16:43:01.786Z,23.47
2023-03-07T16:58:05.763Z,15.90
2023-03-07T17:13:12.259Z,21.10
2023-03-07T17:28:15.684Z,8.93
2023-03-07T17:43:18.353Z,9.03
2023-03-07T17:58:20.758Z,9.47
2023-03-07T18:13:24.201Z,12.23
2023-03-07T18:28:27.732Z,11.13
2023-03-07T18:43:30.290Z,9.50
2023-03-07T18:58:37.612Z,9.93
2023-03-07T19:13:41.828Z,9.07
2023-03-07T19:28:48.732Z,7.00
2023-03-07T19:43:51.955Z,4.00
2023-03-07T19:58:56.127Z,4.27
2023-03-07T20:14:05.264Z,4.93
2023-03-07T20:29:09.328Z,4.13
2023-03-07T20:44:19.515Z,4.37
2023-03-07T20:59:22.245Z,5.83
2023-03-07T21:14:26.248Z,5.13
2023-03-07T21:29:28.705Z,3.70
2023-03-07T21:44:31.672Z,4.60
2023-03-07T21:59:34.495Z,5.33
2023-03-07T22:14:36.830Z,4.50
2023-03-07T22:29:39.086Z,5.17
2023-03-07T22:44:41.405Z,4.03
2023-03-07T22:59:43.842Z,3.90
2023-03-07T23:14:46.296Z,4.03
2023-03-07T23:29:48.610Z,3.43
2023-03-07T23:44:50.908Z,3.87
2023-03-07T23:59:53.208Z,3.40
